sensor_id;sensor_type;location;lat;lon;timestamp;temperature;humidity
27188;DHT22;14708;50.872;5.306;2023-08-06T00:02:23;22.50;67.00
27188;DHT22;14708;50.872;5.306;2023-08-06T00:04:49;22.50;66.80
27188;DHT22;14708;50.872;5.306;2023-08-06T00:07:15;22.50;66.90
27188;DHT22;14708;50.872;5.306;2023-08-06T00:09:40;22.50;66.90
27188;DHT22;14708;50.872;5.306;2023-08-06T00:12:06;22.50;66.90
27188;DHT22;14708;50.872;5.306;2023-08-06T00:14:32;22.50;66.80
27188;DHT22;14708;50.872;5.306;2023-08-06T00:16:58;22.50;66.90
27188;DHT22;14708;50.872;5.306;2023-08-06T00:19:23;22.40;67.10
27188;DHT22;14708;50.872;5.306;2023-08-06T00:21:49;22.50;67.30
27188;DHT22;14708;50.872;5.306;2023-08-06T00:24:15;22.50;66.90
27188;DHT22;14708;50.872;5.306;2023-08-06T00:26:40;22.50;67.00
27188;DHT22;14708;50.872;5.306;2023-08-06T00:29:06;22.50;66.90
27188;DHT22;14708;50.872;5.306;2023-08-06T00:31:31;22.50;66.80
27188;DHT22;14708;50.872;5.306;2023-08-06T00:33:57;22.50;66.80
27188;DHT22;14708;50.872;5.306;2023-08-06T00:36:23;22.50;66.60
27188;DHT22;14708;50.872;5.306;2023-08-06T00:38:48;22.50;67.50
27188;DHT22;14708;50.872;5.306;2023-08-06T00:41:14;22.40;66.70
27188;DHT22;14708;50.872;5.306;2023-08-06T00:43:40;22.50;66.70
27188;DHT22;14708;50.872;5.306;2023-08-06T00:46:06;22.40;67.00
27188;DHT22;14708;50.872;5.306;2023-08-06T00:48:32;22.40;66.80
27188;DHT22;14708;50.872;5.306;2023-08-06T00:50:58;22.40;67.00
27188;DHT22;14708;50.872;5.306;2023-08-06T00:53:24;22.40;66.70
27188;DHT22;14708;50.872;5.306;2023-08-06T00:55:50;22.40;66.70
27188;DHT22;14708;50.872;5.306;2023-08-06T00:58:16;22.40;66.90
27188;DHT22;14708;50.872;5.306;2023-08-06T01:00:42;22.40;66.80
27188;DHT22;14708;50.872;5.306;2023-08-06T01:03:08;22.40;66.90
27188;DHT22;14708;50.872;5.306;2023-08-06T01:05:34;22.40;66.80
27188;DHT22;14708;50.872;5.306;2023-08-06T01:08:15;22.40;67.40
27188;DHT22;14708;50.872;5.306;2023-08-06T01:16:11;22.40;66.70
27188;DHT22;14708;50.872;5.306;2023-08-06T01:18:40;22.40;66.70
27188;DHT22;14708;50.872;5.306;2023-08-06T01:21:07;22.40;66.80
27188;DHT22;14708;50.872;5.306;2023-08-06T01:23:33;22.40;66.60
27188;DHT22;14708;50.872;5.306;2023-08-06T01:31:07;22.40;66.80
27188;DHT22;14708;50.872;5.306;2023-08-06T01:33:34;22.40;66.90
27188;DHT22;14708;50.872;5.306;2023-08-06T01:36:02;22.40;66.50
27188;DHT22;14708;50.872;5.306;2023-08-06T01:38:29;22.40;66.70
27188;DHT22;14708;50.872;5.306;2023-08-06T01:40:55;22.40;66.40
27188;DHT22;14708;50.872;5.306;2023-08-06T01:43:20;22.40;66.60
27188;DHT22;14708;50.872;5.306;2023-08-06T01:45:46;22.40;66.80
27188;DHT22;14708;50.872;5.306;2023-08-06T01:48:11;22.40;66.90
27188;DHT22;14708;50.872;5.306;2023-08-06T01:50:37;22.40;66.70
27188;DHT22;14708;50.872;5.306;2023-08-06T01:53:03;22.40;66.70
27188;DHT22;14708;50.872;5.306;2023-08-06T01:55:29;22.40;66.70
27188;DHT22;14708;50.872;5.306;2023-08-06T01:57:55;22.40;66.40
27188;DHT22;14708;50.872;5.306;2023-08-06T02:00:21;22.40;66.60
27188;DHT22;14708;50.872;5.306;2023-08-06T02:02:47;22.40;66.50
27188;DHT22;14708;50.872;5.306;2023-08-06T02:05:12;22.40;66.50
27188;DHT22;14708;50.872;5.306;2023-08-06T02:07:38;22.40;66.70
27188;DHT22;14708;50.872;5.306;2023-08-06T02:10:04;22.30;66.60
27188;DHT22;14708;50.872;5.306;2023-08-06T02:12:29;22.30;66.60
27188;DHT22;14708;50.872;5.306;2023-08-06T02:14:55;22.30;66.40
27188;DHT22;14708;50.872;5.306;2023-08-06T02:17:20;22.40;66.50
27188;DHT22;14708;50.872;5.306;2023-08-06T02:19:46;22.40;67.20
27188;DHT22;14708;50.872;5.306;2023-08-06T02:22:12;22.40;66.70
27188;DHT22;14708;50.872;5.306;2023-08-06T02:24:37;22.30;66.50
27188;DHT22;14708;50.872;5.306;2023-08-06T02:27:03;22.40;66.40
27188;DHT22;14708;50.872;5.306;2023-08-06T02:29:29;22.30;66.60
27188;DHT22;14708;50.872;5.306;2023-08-06T02:31:54;22.30;66.60
27188;DHT22;14708;50.872;5.306;2023-08-06T02:34:20;22.30;66.50
27188;DHT22;14708;50.872;5.306;2023-08-06T02:36:46;22.30;66.50
27188;DHT22;14708;50.872;5.306;2023-08-06T02:39:11;22.30;66.30
27188;DHT22;14708;50.872;5.306;2023-08-06T02:41:37;22.30;66.40
27188;DHT22;14708;50.872;5.306;2023-08-06T02:44:03;22.30;66.40
27188;DHT22;14708;50.872;5.306;2023-08-06T02:46:28;22.30;66.50
27188;DHT22;14708;50.872;5.306;2023-08-06T02:48:54;22.30;66.50
27188;DHT22;14708;50.872;5.306;2023-08-06T02:51:19;22.30;66.40
27188;DHT22;14708;50.872;5.306;2023-08-06T02:53:45;22.30;66.40
27188;DHT22;14708;50.872;5.306;2023-08-06T02:56:13;22.30;66.50
27188;DHT22;14708;50.872;5.306;2023-08-06T02:58:38;22.40;67.20
27188;DHT22;14708;50.872;5.306;2023-08-06T03:01:05;22.30;66.30
27188;DHT22;14708;50.872;5.306;2023-08-06T03:03:32;22.30;66.40
27188;DHT22;14708;50.872;5.306;2023-08-06T03:05:59;22.30;66.30
27188;DHT22;14708;50.872;5.306;2023-08-06T03:08:25;22.30;66.10
27188;DHT22;14708;50.872;5.306;2023-08-06T03:10:51;22.30;66.10
27188;DHT22;14708;50.872;5.306;2023-08-06T03:13:17;22.30;66.20
27188;DHT22;14708;50.872;5.306;2023-08-06T03:15:51;22.30;66.10
27188;DHT22;14708;50.872;5.306;2023-08-06T03:18:16;22.30;66.10
27188;DHT22;14708;50.872;5.306;2023-08-06T03:20:42;22.30;66.10
27188;DHT22;14708;50.872;5.306;2023-08-06T03:23:07;22.30;66.30
27188;DHT22;14708;50.872;5.306;2023-08-06T03:25:35;22.30;66.40
27188;DHT22;14708;50.872;5.306;2023-08-06T03:28:02;22.30;66.40
27188;DHT22;14708;50.872;5.306;2023-08-06T03:30:27;22.30;66.40
27188;DHT22;14708;50.872;5.306;2023-08-06T03:32:53;22.30;66.50
27188;DHT22;14708;50.872;5.306;2023-08-06T03:35:18;22.30;66.60
27188;DHT22;14708;50.872;5.306;2023-08-06T03:37:44;22.30;66.40
27188;DHT22;14708;50.872;5.306;2023-08-06T03:40:10;22.30;66.50
27188;DHT22;14708;50.872;5.306;2023-08-06T03:42:36;22.30;66.40
27188;DHT22;14708;50.872;5.306;2023-08-06T03:45:01;22.30;66.30
27188;DHT22;14708;50.872;5.306;2023-08-06T03:47:27;22.30;66.10
27188;DHT22;14708;50.872;5.306;2023-08-06T03:49:53;22.30;66.10
27188;DHT22;14708;50.872;5.306;2023-08-06T03:52:18;22.30;66.20
27188;DHT22;14708;50.872;5.306;2023-08-06T03:54:44;22.30;66.10
27188;DHT22;14708;50.872;5.306;2023-08-06T03:57:10;22.40;66.00
27188;DHT22;14708;50.872;5.306;2023-08-06T03:59:35;22.30;66.00
27188;DHT22;14708;50.872;5.306;2023-08-06T04:02:01;22.30;65.90
27188;DHT22;14708;50.872;5.306;2023-08-06T04:04:27;22.30;66.00
27188;DHT22;14708;50.872;5.306;2023-08-06T04:06:53;22.30;66.20
27188;DHT22;14708;50.872;5.306;2023-08-06T04:09:18;22.30;66.10
27188;DHT22;14708;50.872;5.306;2023-08-06T04:11:44;22.30;66.10
27188;DHT22;14708;50.872;5.306;2023-08-06T04:14:10;22.20;66.20
27188;DHT22;14708;50.872;5.306;2023-08-06T04:16:35;22.30;66.10
27188;DHT22;14708;50.872;5.306;2023-08-06T04:19:01;22.30;66.00
27188;DHT22;14708;50.872;5.306;2023-08-06T04:21:27;22.30;66.10
27188;DHT22;14708;50.872;5.306;2023-08-06T04:23:52;22.30;66.20
27188;DHT22;14708;50.872;5.306;2023-08-06T04:26:18;22.30;66.20
27188;DHT22;14708;50.872;5.306;2023-08-06T04:28:43;22.30;66.00
27188;DHT22;14708;50.872;5.306;2023-08-06T04:31:09;22.30;66.20
27188;DHT22;14708;50.872;5.306;2023-08-06T04:33:35;22.30;66.10
27188;DHT22;14708;50.872;5.306;2023-08-06T04:36:00;22.30;66.20
27188;DHT22;14708;50.872;5.306;2023-08-06T04:38:27;22.30;66.30
27188;DHT22;14708;50.872;5.306;2023-08-06T04:40:53;22.20;66.20
27188;DHT22;14708;50.872;5.306;2023-08-06T04:43:18;22.30;66.30
27188;DHT22;14708;50.872;5.306;2023-08-06T04:45:51;22.20;66.20
27188;DHT22;14708;50.872;5.306;2023-08-06T04:48:18;22.20;66.40
27188;DHT22;14708;50.872;5.306;2023-08-06T04:50:48;22.30;66.30
27188;DHT22;14708;50.872;5.306;2023-08-06T04:53:14;22.30;66.20
27188;DHT22;14708;50.872;5.306;2023-08-06T04:55:40;22.20;66.20
27188;DHT22;14708;50.872;5.306;2023-08-06T04:58:06;22.20;66.30
27188;DHT22;14708;50.872;5.306;2023-08-06T05:00:32;22.20;66.30
27188;DHT22;14708;50.872;5.306;2023-08-06T05:03:00;22.30;66.00
27188;DHT22;14708;50.872;5.306;2023-08-06T05:05:26;22.30;65.70
27188;DHT22;14708;50.872;5.306;2023-08-06T05:07:54;22.30;65.70
27188;DHT22;14708;50.872;5.306;2023-08-06T05:10:20;22.30;65.80
27188;DHT22;14708;50.872;5.306;2023-08-06T05:12:46;22.30;65.90
27188;DHT22;14708;50.872;5.306;2023-08-06T05:15:12;22.30;65.70
27188;DHT22;14708;50.872;5.306;2023-08-06T05:17:37;22.30;65.80
27188;DHT22;14708;50.872;5.306;2023-08-06T05:20:03;22.30;66.00
27188;DHT22;14708;50.872;5.306;2023-08-06T05:22:29;22.20;65.90
27188;DHT22;14708;50.872;5.306;2023-08-06T05:24:55;22.20;66.10
27188;DHT22;14708;50.872;5.306;2023-08-06T05:27:20;22.30;66.10
27188;DHT22;14708;50.872;5.306;2023-08-06T05:29:47;22.30;66.00
27188;DHT22;14708;50.872;5.306;2023-08-06T05:32:13;22.20;65.90
27188;DHT22;14708;50.872;5.306;2023-08-06T05:34:39;22.20;66.00
27188;DHT22;14708;50.872;5.306;2023-08-06T05:37:04;22.20;66.10
27188;DHT22;14708;50.872;5.306;2023-08-06T05:39:30;22.20;65.90
27188;DHT22;14708;50.872;5.306;2023-08-06T05:41:56;22.20;65.90
27188;DHT22;14708;50.872;5.306;2023-08-06T05:44:23;22.20;65.90
27188;DHT22;14708;50.872;5.306;2023-08-06T05:46:49;22.30;66.00
27188;DHT22;14708;50.872;5.306;2023-08-06T05:49:23;22.30;66.00
27188;DHT22;14708;50.872;5.306;2023-08-06T05:51:49;22.30;65.90
27188;DHT22;14708;50.872;5.306;2023-08-06T05:54:15;22.30;65.90
27188;DHT22;14708;50.872;5.306;2023-08-06T05:56:40;22.30;65.70
27188;DHT22;14708;50.872;5.306;2023-08-06T05:59:06;22.30;65.80
27188;DHT22;14708;50.872;5.306;2023-08-06T06:01:32;22.20;65.70
27188;DHT22;14708;50.872;5.306;2023-08-06T06:03:57;22.20;65.90
27188;DHT22;14708;50.872;5.306;2023-08-06T06:06:23;22.30;66.00
27188;DHT22;14708;50.872;5.306;2023-08-06T06:08:48;22.20;66.00
27188;DHT22;14708;50.872;5.306;2023-08-06T06:11:14;22.20;66.00
27188;DHT22;14708;50.872;5.306;2023-08-06T06:13:40;22.20;65.70
27188;DHT22;14708;50.872;5.306;2023-08-06T06:16:05;22.20;65.70
27188;DHT22;14708;50.872;5.306;2023-08-06T06:18:31;22.20;65.80
27188;DHT22;14708;50.872;5.306;2023-08-06T06:20:57;22.20;65.80
27188;DHT22;14708;50.872;5.306;2023-08-06T06:23:22;22.20;65.70
27188;DHT22;14708;50.872;5.306;2023-08-06T06:25:49;22.20;65.80
27188;DHT22;14708;50.872;5.306;2023-08-06T06:28:18;22.20;65.90
27188;DHT22;14708;50.872;5.306;2023-08-06T06:30:43;22.20;66.10
27188;DHT22;14708;50.872;5.306;2023-08-06T06:33:09;22.20;65.80
27188;DHT22;14708;50.872;5.306;2023-08-06T06:35:35;22.20;66.30
27188;DHT22;14708;50.872;5.306;2023-08-06T06:38:00;22.20;66.40
27188;DHT22;14708;50.872;5.306;2023-08-06T06:40:26;22.20;66.50
27188;DHT22;14708;50.872;5.306;2023-08-06T06:42:52;22.20;66.80
27188;DHT22;14708;50.872;5.306;2023-08-06T06:45:17;22.30;67.00
27188;DHT22;14708;50.872;5.306;2023-08-06T06:47:43;22.40;67.20
27188;DHT22;14708;50.872;5.306;2023-08-06T06:50:09;22.40;67.30
27188;DHT22;14708;50.872;5.306;2023-08-06T06:52:35;22.40;67.20
27188;DHT22;14708;50.872;5.306;2023-08-06T06:55:00;22.40;67.30
27188;DHT22;14708;50.872;5.306;2023-08-06T06:57:26;22.40;67.30
27188;DHT22;14708;50.872;5.306;2023-08-06T06:59:52;22.30;67.60
27188;DHT22;14708;50.872;5.306;2023-08-06T07:02:17;22.40;67.00
27188;DHT22;14708;50.872;5.306;2023-08-06T07:04:43;22.30;67.40
27188;DHT22;14708;50.872;5.306;2023-08-06T07:07:09;22.40;67.30
27188;DHT22;14708;50.872;5.306;2023-08-06T07:09:35;22.30;67.40
27188;DHT22;14708;50.872;5.306;2023-08-06T07:12:01;22.40;67.60
27188;DHT22;14708;50.872;5.306;2023-08-06T07:14:28;22.40;67.70
27188;DHT22;14708;50.872;5.306;2023-08-06T07:16:54;22.40;67.50
27188;DHT22;14708;50.872;5.306;2023-08-06T07:19:20;22.30;67.80
27188;DHT22;14708;50.872;5.306;2023-08-06T07:21:46;22.30;67.60
27188;DHT22;14708;50.872;5.306;2023-08-06T07:24:11;22.30;67.90
27188;DHT22;14708;50.872;5.306;2023-08-06T07:26:38;22.30;68.00
27188;DHT22;14708;50.872;5.306;2023-08-06T07:29:03;22.30;67.70
27188;DHT22;14708;50.872;5.306;2023-08-06T07:31:29;22.40;67.80
27188;DHT22;14708;50.872;5.306;2023-08-06T07:33:54;22.40;68.20
27188;DHT22;14708;50.872;5.306;2023-08-06T07:36:20;22.30;68.20
27188;DHT22;14708;50.872;5.306;2023-08-06T07:38:46;22.40;68.00
27188;DHT22;14708;50.872;5.306;2023-08-06T07:41:12;22.50;67.70
27188;DHT22;14708;50.872;5.306;2023-08-06T07:43:38;22.50;66.40
27188;DHT22;14708;50.872;5.306;2023-08-06T07:46:04;22.50;66.20
27188;DHT22;14708;50.872;5.306;2023-08-06T07:48:30;22.50;65.80
27188;DHT22;14708;50.872;5.306;2023-08-06T07:51:00;22.50;65.40
27188;DHT22;14708;50.872;5.306;2023-08-06T07:53:26;22.60;66.10
27188;DHT22;14708;50.872;5.306;2023-08-06T07:55:54;22.60;66.50
27188;DHT22;14708;50.872;5.306;2023-08-06T07:58:21;22.50;65.50
27188;DHT22;14708;50.872;5.306;2023-08-06T08:00:47;22.50;66.40
27188;DHT22;14708;50.872;5.306;2023-08-06T08:03:13;22.40;67.20
27188;DHT22;14708;50.872;5.306;2023-08-06T08:05:39;22.50;66.20
27188;DHT22;14708;50.872;5.306;2023-08-06T08:08:05;22.50;66.90
27188;DHT22;14708;50.872;5.306;2023-08-06T08:10:32;22.50;67.30
27188;DHT22;14708;50.872;5.306;2023-08-06T08:12:58;22.50;67.50
27188;DHT22;14708;50.872;5.306;2023-08-06T08:15:24;22.50;67.40
27188;DHT22;14708;50.872;5.306;2023-08-06T08:17:52;22.60;67.40
27188;DHT22;14708;50.872;5.306;2023-08-06T08:20:17;22.60;68.00
27188;DHT22;14708;50.872;5.306;2023-08-06T08:22:44;22.60;67.40
27188;DHT22;14708;50.872;5.306;2023-08-06T08:25:09;22.70;68.00
27188;DHT22;14708;50.872;5.306;2023-08-06T08:27:35;22.80;68.10
27188;DHT22;14708;50.872;5.306;2023-08-06T08:30:01;22.80;67.80
27188;DHT22;14708;50.872;5.306;2023-08-06T08:32:27;22.90;68.80
27188;DHT22;14708;50.872;5.306;2023-08-06T08:34:52;23.00;68.80
27188;DHT22;14708;50.872;5.306;2023-08-06T08:37:19;23.00;68.40
27188;DHT22;14708;50.872;5.306;2023-08-06T08:39:44;23.10;67.90
27188;DHT22;14708;50.872;5.306;2023-08-06T08:42:10;23.10;68.00
27188;DHT22;14708;50.872;5.306;2023-08-06T08:44:36;23.10;67.30
27188;DHT22;14708;50.872;5.306;2023-08-06T08:47:06;23.10;68.20
27188;DHT22;14708;50.872;5.306;2023-08-06T08:49:32;23.10;68.10
27188;DHT22;14708;50.872;5.306;2023-08-06T08:52:01;23.20;68.00
27188;DHT22;14708;50.872;5.306;2023-08-06T08:54:27;23.20;68.30
27188;DHT22;14708;50.872;5.306;2023-08-06T08:56:54;23.20;68.60
27188;DHT22;14708;50.872;5.306;2023-08-06T08:59:20;23.30;68.30
27188;DHT22;14708;50.872;5.306;2023-08-06T09:01:48;23.30;67.90
27188;DHT22;14708;50.872;5.306;2023-08-06T09:04:17;23.30;68.80
27188;DHT22;14708;50.872;5.306;2023-08-06T09:06:46;23.30;69.00
27188;DHT22;14708;50.872;5.306;2023-08-06T09:09:13;23.30;68.90
27188;DHT22;14708;50.872;5.306;2023-08-06T09:11:43;23.30;69.10
27188;DHT22;14708;50.872;5.306;2023-08-06T09:14:11;23.30;69.20
27188;DHT22;14708;50.872;5.306;2023-08-06T09:16:37;23.30;69.30
27188;DHT22;14708;50.872;5.306;2023-08-06T09:19:10;23.20;69.50
27188;DHT22;14708;50.872;5.306;2023-08-06T09:21:39;23.20;66.90
27188;DHT22;14708;50.872;5.306;2023-08-06T09:24:09;23.20;67.50
27188;DHT22;14708;50.872;5.306;2023-08-06T09:26:40;23.10;66.40
27188;DHT22;14708;50.872;5.306;2023-08-06T09:29:08;23.00;65.30
27188;DHT22;14708;50.872;5.306;2023-08-06T09:31:44;23.10;66.60
27188;DHT22;14708;50.872;5.306;2023-08-06T09:34:18;23.00;67.70
27188;DHT22;14708;50.872;5.306;2023-08-06T09:36:54;23.00;67.90
27188;DHT22;14708;50.872;5.306;2023-08-06T09:39:21;23.00;68.20
27188;DHT22;14708;50.872;5.306;2023-08-06T09:41:47;23.00;67.90
27188;DHT22;14708;50.872;5.306;2023-08-06T09:44:21;23.00;68.10
27188;DHT22;14708;50.872;5.306;2023-08-06T09:46:53;23.10;68.00
27188;DHT22;14708;50.872;5.306;2023-08-06T09:49:20;23.20;66.70
27188;DHT22;14708;50.872;5.306;2023-08-06T09:51:46;23.20;65.70
27188;DHT22;14708;50.872;5.306;2023-08-06T09:54:17;23.20;65.90
27188;DHT22;14708;50.872;5.306;2023-08-06T09:56:44;23.20;59.70
27188;DHT22;14708;50.872;5.306;2023-08-06T09:59:10;23.00;62.40
27188;DHT22;14708;50.872;5.306;2023-08-06T10:01:36;22.90;64.00
27188;DHT22;14708;50.872;5.306;2023-08-06T10:04:04;22.90;64.00
27188;DHT22;14708;50.872;5.306;2023-08-06T10:06:31;22.90;65.10
27188;DHT22;14708;50.872;5.306;2023-08-06T10:08:59;23.00;66.10
27188;DHT22;14708;50.872;5.306;2023-08-06T10:11:25;22.90;65.80
27188;DHT22;14708;50.872;5.306;2023-08-06T10:13:58;23.00;66.40
27188;DHT22;14708;50.872;5.306;2023-08-06T10:16:26;23.00;67.00
27188;DHT22;14708;50.872;5.306;2023-08-06T10:18:53;22.90;67.20
27188;DHT22;14708;50.872;5.306;2023-08-06T10:21:20;23.00;67.40
27188;DHT22;14708;50.872;5.306;2023-08-06T10:23:54;23.00;67.10
27188;DHT22;14708;50.872;5.306;2023-08-06T10:26:19;23.10;67.00
27188;DHT22;14708;50.872;5.306;2023-08-06T10:28:45;23.00;67.10
27188;DHT22;14708;50.872;5.306;2023-08-06T10:31:11;23.00;66.10
27188;DHT22;14708;50.872;5.306;2023-08-06T10:33:47;23.00;64.70
27188;DHT22;14708;50.872;5.306;2023-08-06T10:36:14;22.90;63.30
27188;DHT22;14708;50.872;5.306;2023-08-06T10:38:49;22.90;62.90
27188;DHT22;14708;50.872;5.306;2023-08-06T10:41:27;22.80;62.50
27188;DHT22;14708;50.872;5.306;2023-08-06T10:44:06;22.80;63.50
27188;DHT22;14708;50.872;5.306;2023-08-06T10:46:34;22.70;63.30
27188;DHT22;14708;50.872;5.306;2023-08-06T10:49:01;22.70;63.80
27188;DHT22;14708;50.872;5.306;2023-08-06T10:51:26;22.70;63.80
27188;DHT22;14708;50.872;5.306;2023-08-06T10:53:53;22.70;64.70
27188;DHT22;14708;50.872;5.306;2023-08-06T10:56:21;22.70;64.10
27188;DHT22;14708;50.872;5.306;2023-08-06T10:58:48;22.70;64.70
27188;DHT22;14708;50.872;5.306;2023-08-06T11:01:15;22.70;63.80
27188;DHT22;14708;50.872;5.306;2023-08-06T11:03:45;22.70;64.30
27188;DHT22;14708;50.872;5.306;2023-08-06T11:06:17;22.70;63.60
27188;DHT22;14708;50.872;5.306;2023-08-06T11:08:51;22.70;64.00
27188;DHT22;14708;50.872;5.306;2023-08-06T11:11:17;22.70;64.50
27188;DHT22;14708;50.872;5.306;2023-08-06T11:13:44;22.60;63.60
27188;DHT22;14708;50.872;5.306;2023-08-06T11:16:14;22.60;62.80
27188;DHT22;14708;50.872;5.306;2023-08-06T11:18:41;22.60;63.00
27188;DHT22;14708;50.872;5.306;2023-08-06T11:21:09;22.70;64.60
27188;DHT22;14708;50.872;5.306;2023-08-06T11:23:35;22.70;65.10
27188;DHT22;14708;50.872;5.306;2023-08-06T11:26:01;22.70;64.30
27188;DHT22;14708;50.872;5.306;2023-08-06T11:28:28;22.80;65.00
27188;DHT22;14708;50.872;5.306;2023-08-06T11:30:54;22.80;64.50
27188;DHT22;14708;50.872;5.306;2023-08-06T11:33:23;22.80;64.60
27188;DHT22;14708;50.872;5.306;2023-08-06T11:35:54;22.80;64.80
27188;DHT22;14708;50.872;5.306;2023-08-06T11:38:20;22.80;64.10
27188;DHT22;14708;50.872;5.306;2023-08-06T11:40:47;22.80;64.70
27188;DHT22;14708;50.872;5.306;2023-08-06T11:43:13;22.80;63.30
27188;DHT22;14708;50.872;5.306;2023-08-06T11:45:40;22.80;63.10
27188;DHT22;14708;50.872;5.306;2023-08-06T11:48:06;22.70;63.10
27188;DHT22;14708;50.872;5.306;2023-08-06T11:50:36;22.70;63.10
27188;DHT22;14708;50.872;5.306;2023-08-06T11:53:03;22.60;63.20
27188;DHT22;14708;50.872;5.306;2023-08-06T11:55:29;22.60;62.70
27188;DHT22;14708;50.872;5.306;2023-08-06T11:57:55;22.60;63.00
27188;DHT22;14708;50.872;5.306;2023-08-06T12:00:24;22.70;64.10
27188;DHT22;14708;50.872;5.306;2023-08-06T12:02:51;22.60;63.90
27188;DHT22;14708;50.872;5.306;2023-08-06T12:05:22;22.60;64.30
27188;DHT22;14708;50.872;5.306;2023-08-06T12:07:58;22.60;64.10
27188;DHT22;14708;50.872;5.306;2023-08-06T12:10:29;22.60;62.80
27188;DHT22;14708;50.872;5.306;2023-08-06T12:12:55;22.50;61.50
27188;DHT22;14708;50.872;5.306;2023-08-06T12:15:21;22.60;62.80
27188;DHT22;14708;50.872;5.306;2023-08-06T12:17:47;22.50;64.00
27188;DHT22;14708;50.872;5.306;2023-08-06T12:20:13;22.60;64.30
27188;DHT22;14708;50.872;5.306;2023-08-06T12:22:39;22.60;64.20
27188;DHT22;14708;50.872;5.306;2023-08-06T12:25:06;22.50;64.40
27188;DHT22;14708;50.872;5.306;2023-08-06T12:27:36;22.50;64.40
27188;DHT22;14708;50.872;5.306;2023-08-06T12:30:02;22.50;64.70
27188;DHT22;14708;50.872;5.306;2023-08-06T12:32:29;22.50;64.90
27188;DHT22;14708;50.872;5.306;2023-08-06T12:34:55;22.50;65.00
27188;DHT22;14708;50.872;5.306;2023-08-06T12:37:21;22.50;65.10
27188;DHT22;14708;50.872;5.306;2023-08-06T12:39:47;22.50;65.10
27188;DHT22;14708;50.872;5.306;2023-08-06T12:42:13;22.50;65.10
27188;DHT22;14708;50.872;5.306;2023-08-06T12:44:38;22.60;65.10
27188;DHT22;14708;50.872;5.306;2023-08-06T12:47:04;22.60;65.10
27188;DHT22;14708;50.872;5.306;2023-08-06T12:49:30;22.70;64.70
27188;DHT22;14708;50.872;5.306;2023-08-06T12:51:57;22.80;64.30
27188;DHT22;14708;50.872;5.306;2023-08-06T12:54:25;22.70;64.40
27188;DHT22;14708;50.872;5.306;2023-08-06T12:56:50;22.80;64.20
27188;DHT22;14708;50.872;5.306;2023-08-06T12:59:17;22.80;64.10
27188;DHT22;14708;50.872;5.306;2023-08-06T13:01:43;22.70;64.00
27188;DHT22;14708;50.872;5.306;2023-08-06T13:04:09;22.70;62.50
27188;DHT22;14708;50.872;5.306;2023-08-06T13:06:35;22.60;62.00
27188;DHT22;14708;50.872;5.306;2023-08-06T13:09:09;22.60;63.60
27188;DHT22;14708;50.872;5.306;2023-08-06T13:11:41;22.60;62.60
27188;DHT22;14708;50.872;5.306;2023-08-06T13:14:08;22.60;62.30
27188;DHT22;14708;50.872;5.306;2023-08-06T13:16:35;22.60;62.90
27188;DHT22;14708;50.872;5.306;2023-08-06T13:19:02;22.60;63.40
27188;DHT22;14708;50.872;5.306;2023-08-06T13:21:34;22.60;63.40
27188;DHT22;14708;50.872;5.306;2023-08-06T13:24:01;22.70;63.50
27188;DHT22;14708;50.872;5.306;2023-08-06T13:26:31;22.60;63.60
27188;DHT22;14708;50.872;5.306;2023-08-06T13:29:00;22.60;63.60
27188;DHT22;14708;50.872;5.306;2023-08-06T13:31:28;22.60;64.00
27188;DHT22;14708;50.872;5.306;2023-08-06T13:33:55;22.60;64.20
27188;DHT22;14708;50.872;5.306;2023-08-06T13:36:24;22.60;64.40
27188;DHT22;14708;50.872;5.306;2023-08-06T13:38:50;22.70;64.50
27188;DHT22;14708;50.872;5.306;2023-08-06T13:41:16;22.70;64.20
27188;DHT22;14708;50.872;5.306;2023-08-06T13:43:42;22.60;64.60
27188;DHT22;14708;50.872;5.306;2023-08-06T13:46:08;22.60;64.50
27188;DHT22;14708;50.872;5.306;2023-08-06T13:48:34;22.60;64.40
27188;DHT22;14708;50.872;5.306;2023-08-06T13:51:00;22.60;64.50
27188;DHT22;14708;50.872;5.306;2023-08-06T13:53:25;22.60;64.60
27188;DHT22;14708;50.872;5.306;2023-08-06T13:55:55;22.60;64.90
27188;DHT22;14708;50.872;5.306;2023-08-06T13:58:22;22.60;64.40
27188;DHT22;14708;50.872;5.306;2023-08-06T14:00:48;22.60;64.80
27188;DHT22;14708;50.872;5.306;2023-08-06T14:03:13;22.60;65.10
27188;DHT22;14708;50.872;5.306;2023-08-06T14:05:39;22.60;65.00
27188;DHT22;14708;50.872;5.306;2023-08-06T14:08:05;22.60;64.90
27188;DHT22;14708;50.872;5.306;2023-08-06T14:10:30;22.50;64.70
27188;DHT22;14708;50.872;5.306;2023-08-06T14:12:56;22.60;64.70
27188;DHT22;14708;50.872;5.306;2023-08-06T14:15:22;22.50;65.10
27188;DHT22;14708;50.872;5.306;2023-08-06T14:17:47;22.50;64.90
27188;DHT22;14708;50.872;5.306;2023-08-06T14:20:14;22.60;65.10
27188;DHT22;14708;50.872;5.306;2023-08-06T14:22:40;22.60;64.60
27188;DHT22;14708;50.872;5.306;2023-08-06T14:25:05;22.60;64.70
27188;DHT22;14708;50.872;5.306;2023-08-06T14:27:32;22.60;64.50
27188;DHT22;14708;50.872;5.306;2023-08-06T14:29:57;22.60;64.90
27188;DHT22;14708;50.872;5.306;2023-08-06T14:32:23;22.50;65.00
27188;DHT22;14708;50.872;5.306;2023-08-06T14:34:49;22.40;65.00
27188;DHT22;14708;50.872;5.306;2023-08-06T14:37:15;22.40;65.20
27188;DHT22;14708;50.872;5.306;2023-08-06T14:39:41;22.40;65.20
27188;DHT22;14708;50.872;5.306;2023-08-06T14:42:06;22.40;65.20
27188;DHT22;14708;50.872;5.306;2023-08-06T14:44:32;22.40;65.20
27188;DHT22;14708;50.872;5.306;2023-08-06T14:46:58;22.40;65.40
27188;DHT22;14708;50.872;5.306;2023-08-06T14:49:23;22.50;65.60
27188;DHT22;14708;50.872;5.306;2023-08-06T14:51:49;22.50;65.40
27188;DHT22;14708;50.872;5.306;2023-08-06T14:54:15;22.50;65.40
27188;DHT22;14708;50.872;5.306;2023-08-06T14:56:41;22.40;65.40
27188;DHT22;14708;50.872;5.306;2023-08-06T14:59:06;22.40;65.30
27188;DHT22;14708;50.872;5.306;2023-08-06T15:01:32;22.40;65.20
27188;DHT22;14708;50.872;5.306;2023-08-06T15:03:58;22.40;65.40
27188;DHT22;14708;50.872;5.306;2023-08-06T15:06:24;22.60;64.70
27188;DHT22;14708;50.872;5.306;2023-08-06T15:08:50;22.60;65.00
27188;DHT22;14708;50.872;5.306;2023-08-06T15:11:15;22.60;64.90
27188;DHT22;14708;50.872;5.306;2023-08-06T15:13:41;22.60;65.00
27188;DHT22;14708;50.872;5.306;2023-08-06T15:16:07;22.60;64.70
27188;DHT22;14708;50.872;5.306;2023-08-06T15:18:32;22.60;64.80
27188;DHT22;14708;50.872;5.306;2023-08-06T15:20:58;22.60;64.60
27188;DHT22;14708;50.872;5.306;2023-08-06T15:23:24;22.60;65.30
27188;DHT22;14708;50.872;5.306;2023-08-06T15:25:50;22.70;64.40
27188;DHT22;14708;50.872;5.306;2023-08-06T15:28:16;22.80;64.20
27188;DHT22;14708;50.872;5.306;2023-08-06T15:30:51;22.80;63.90
27188;DHT22;14708;50.872;5.306;2023-08-06T15:33:18;22.70;64.10
27188;DHT22;14708;50.872;5.306;2023-08-06T15:35:44;22.70;64.20
27188;DHT22;14708;50.872;5.306;2023-08-06T15:38:10;22.80;64.20